sensor_id;sensor_type;location;lat;lon;timestamp;P1;durP1;ratioP1;P2;durP2;ratioP2
82787;SDS011;72529;51.786;4.662;2024-03-02T00:02:13;0.75;;;0.71;;
82787;SDS011;72529;51.786;4.662;2024-03-02T00:04:39;0.74;;;0.70;;
82787;SDS011;72529;51.786;4.662;2024-03-02T00:07:04;0.93;;;0.88;;
82787;SDS011;72529;51.786;4.662;2024-03-02T00:09:31;0.78;;;0.73;;
82787;SDS011;72529;51.786;4.662;2024-03-02T00:11:58;0.68;;;0.65;;
82787;SDS011;72529;51.786;4.662;2024-03-02T00:14:25;0.82;;;0.79;;
82787;SDS011;72529;51.786;4.662;2024-03-02T00:16:54;0.97;;;0.94;;
82787;SDS011;72529;51.786;4.662;2024-03-02T00:19:21;0.77;;;0.75;;
82787;SDS011;72529;51.786;4.662;2024-03-02T00:21:46;0.91;;;0.89;;
82787;SDS011;72529;51.786;4.662;2024-03-02T00:24:24;0.68;;;0.66;;
82787;SDS011;72529;51.786;4.662;2024-03-02T00:26:58;0.72;;;0.70;;
82787;SDS011;72529;51.786;4.662;2024-03-02T00:29:23;0.79;;;0.78;;
82787;SDS011;72529;51.786;4.662;2024-03-02T00:31:49;0.89;;;0.88;;
82787;SDS011;72529;51.786;4.662;2024-03-02T00:34:15;0.73;;;0.73;;
82787;SDS011;72529;51.786;4.662;2024-03-02T00:36:41;1.10;;;1.10;;
82787;SDS011;72529;51.786;4.662;2024-03-02T00:39:07;0.94;;;0.94;;
82787;SDS011;72529;51.786;4.662;2024-03-02T00:41:33;0.94;;;0.94;;
82787;SDS011;72529;51.786;4.662;2024-03-02T00:44:04;0.93;;;0.93;;
82787;SDS011;72529;51.786;4.662;2024-03-02T00:46:33;1.04;;;1.04;;
82787;SDS011;72529;51.786;4.662;2024-03-02T00:49:03;1.04;;;1.04;;
82787;SDS011;72529;51.786;4.662;2024-03-02T00:51:31;0.99;;;0.99;;
82787;SDS011;72529;51.786;4.662;2024-03-02T00:53:58;1.01;;;1.01;;
82787;SDS011;72529;51.786;4.662;2024-03-02T00:56:26;0.97;;;0.97;;
82787;SDS011;72529;51.786;4.662;2024-03-02T00:58:52;1.18;;;1.18;;
82787;SDS011;72529;51.786;4.662;2024-03-02T01:01:18;1.20;;;1.20;;
82787;SDS011;72529;51.786;4.662;2024-03-02T01:03:47;1.18;;;1.18;;
82787;SDS011;72529;51.786;4.662;2024-03-02T01:06:14;1.00;;;1.00;;
82787;SDS011;72529;51.786;4.662;2024-03-02T01:08:39;1.16;;;1.16;;
82787;SDS011;72529;51.786;4.662;2024-03-02T01:11:05;1.30;;;1.30;;
82787;SDS011;72529;51.786;4.662;2024-03-02T01:13:31;1.22;;;1.22;;
82787;SDS011;72529;51.786;4.662;2024-03-02T01:15:57;1.24;;;1.24;;
82787;SDS011;72529;51.786;4.662;2024-03-02T01:18:22;1.17;;;1.17;;
82787;SDS011;72529;51.786;4.662;2024-03-02T01:20:48;0.99;;;0.99;;
82787;SDS011;72529;51.786;4.662;2024-03-02T01:23:17;1.30;;;1.30;;
82787;SDS011;72529;51.786;4.662;2024-03-02T01:25:44;1.06;;;1.06;;
82787;SDS011;72529;51.786;4.662;2024-03-02T01:28:10;0.80;;;0.80;;
82787;SDS011;72529;51.786;4.662;2024-03-02T01:30:36;0.77;;;0.77;;
82787;SDS011;72529;51.786;4.662;2024-03-02T01:33:01;0.64;;;0.64;;
82787;SDS011;72529;51.786;4.662;2024-03-02T01:35:27;0.79;;;0.79;;
82787;SDS011;72529;51.786;4.662;2024-03-02T01:37:53;0.74;;;0.74;;
82787;SDS011;72529;51.786;4.662;2024-03-02T01:40:18;0.77;;;0.77;;
82787;SDS011;72529;51.786;4.662;2024-03-02T01:42:45;0.79;;;0.79;;
82787;SDS011;72529;51.786;4.662;2024-03-02T01:45:10;0.65;;;0.64;;
82787;SDS011;72529;51.786;4.662;2024-03-02T01:47:36;0.74;;;0.74;;
82787;SDS011;72529;51.786;4.662;2024-03-02T01:50:01;0.72;;;0.72;;
82787;SDS011;72529;51.786;4.662;2024-03-02T01:52:27;0.71;;;0.71;;
82787;SDS011;72529;51.786;4.662;2024-03-02T01:54:53;0.75;;;0.75;;
82787;SDS011;72529;51.786;4.662;2024-03-02T01:57:18;0.74;;;0.74;;
82787;SDS011;72529;51.786;4.662;2024-03-02T01:59:44;0.87;;;0.87;;
82787;SDS011;72529;51.786;4.662;2024-03-02T02:02:13;0.91;;;0.90;;
82787;SDS011;72529;51.786;4.662;2024-03-02T02:04:39;0.81;;;0.80;;
82787;SDS011;72529;51.786;4.662;2024-03-02T02:07:05;0.98;;;0.98;;
82787;SDS011;72529;51.786;4.662;2024-03-02T02:09:31;0.88;;;0.87;;
82787;SDS011;72529;51.786;4.662;2024-03-02T02:11:57;0.85;;;0.85;;
82787;SDS011;72529;51.786;4.662;2024-03-02T02:14:23;1.34;;;1.33;;
82787;SDS011;72529;51.786;4.662;2024-03-02T02:16:48;1.01;;;1.01;;
82787;SDS011;72529;51.786;4.662;2024-03-02T02:19:14;0.97;;;0.96;;
82787;SDS011;72529;51.786;4.662;2024-03-02T02:21:43;0.85;;;0.85;;
82787;SDS011;72529;51.786;4.662;2024-03-02T02:24:08;1.06;;;1.05;;
82787;SDS011;72529;51.786;4.662;2024-03-02T02:26:34;1.06;;;1.06;;
82787;SDS011;72529;51.786;4.662;2024-03-02T02:29:00;1.05;;;1.05;;
82787;SDS011;72529;51.786;4.662;2024-03-02T02:31:25;1.11;;;1.10;;
82787;SDS011;72529;51.786;4.662;2024-03-02T02:33:51;0.99;;;0.98;;
82787;SDS011;72529;51.786;4.662;2024-03-02T02:36:16;1.11;;;1.11;;
82787;SDS011;72529;51.786;4.662;2024-03-02T02:38:42;0.96;;;0.95;;
82787;SDS011;72529;51.786;4.662;2024-03-02T02:41:11;0.92;;;0.92;;
82787;SDS011;72529;51.786;4.662;2024-03-02T02:43:38;1.11;;;1.10;;
82787;SDS011;72529;51.786;4.662;2024-03-02T02:46:05;1.09;;;1.08;;
82787;SDS011;72529;51.786;4.662;2024-03-02T02:48:30;1.23;;;1.23;;
82787;SDS011;72529;51.786;4.662;2024-03-02T02:50:55;1.11;;;1.10;;
82787;SDS011;72529;51.786;4.662;2024-03-02T02:53:21;1.00;;;1.00;;
82787;SDS011;72529;51.786;4.662;2024-03-02T02:55:46;1.04;;;1.03;;
82787;SDS011;72529;51.786;4.662;2024-03-02T02:58:12;0.91;;;0.90;;
82787;SDS011;72529;51.786;4.662;2024-03-02T03:00:37;0.94;;;0.93;;
82787;SDS011;72529;51.786;4.662;2024-03-02T03:03:03;0.84;;;0.84;;
82787;SDS011;72529;51.786;4.662;2024-03-02T03:05:29;0.84;;;0.84;;
82787;SDS011;72529;51.786;4.662;2024-03-02T03:07:54;0.92;;;0.92;;
82787;SDS011;72529;51.786;4.662;2024-03-02T03:10:20;0.95;;;0.95;;
82787;SDS011;72529;51.786;4.662;2024-03-02T03:12:47;0.77;;;0.77;;
82787;SDS011;72529;51.786;4.662;2024-03-02T03:15:13;0.95;;;0.95;;
82787;SDS011;72529;51.786;4.662;2024-03-02T03:17:39;0.84;;;0.84;;
82787;SDS011;72529;51.786;4.662;2024-03-02T03:20:05;0.88;;;0.88;;
82787;SDS011;72529;51.786;4.662;2024-03-02T03:22:34;0.90;;;0.90;;
82787;SDS011;72529;51.786;4.662;2024-03-02T03:25:00;0.91;;;0.91;;
82787;SDS011;72529;51.786;4.662;2024-03-02T03:27:26;0.96;;;0.96;;
82787;SDS011;72529;51.786;4.662;2024-03-02T03:29:51;0.86;;;0.86;;
82787;SDS011;72529;51.786;4.662;2024-03-02T03:32:17;0.79;;;0.79;;
82787;SDS011;72529;51.786;4.662;2024-03-02T03:34:42;0.86;;;0.86;;
82787;SDS011;72529;51.786;4.662;2024-03-02T03:37:08;0.87;;;0.87;;
82787;SDS011;72529;51.786;4.662;2024-03-02T03:39:34;0.83;;;0.83;;
82787;SDS011;72529;51.786;4.662;2024-03-02T03:42:01;0.91;;;0.91;;
82787;SDS011;72529;51.786;4.662;2024-03-02T03:44:26;0.80;;;0.80;;
82787;SDS011;72529;51.786;4.662;2024-03-02T03:46:51;0.81;;;0.81;;
82787;SDS011;72529;51.786;4.662;2024-03-02T03:49:17;0.88;;;0.88;;
82787;SDS011;72529;51.786;4.662;2024-03-02T03:51:43;0.78;;;0.77;;
82787;SDS011;72529;51.786;4.662;2024-03-02T03:54:08;0.91;;;0.91;;
82787;SDS011;72529;51.786;4.662;2024-03-02T03:56:36;0.77;;;0.77;;
82787;SDS011;72529;51.786;4.662;2024-03-02T03:59:01;0.84;;;0.84;;
82787;SDS011;72529;51.786;4.662;2024-03-02T04:01:27;0.76;;;0.76;;
82787;SDS011;72529;51.786;4.662;2024-03-02T04:03:52;0.92;;;0.92;;
82787;SDS011;72529;51.786;4.662;2024-03-02T04:06:18;0.93;;;0.93;;
82787;SDS011;72529;51.786;4.662;2024-03-02T04:08:43;0.92;;;0.92;;
82787;SDS011;72529;51.786;4.662;2024-03-02T04:11:08;0.75;;;0.75;;
82787;SDS011;72529;51.786;4.662;2024-03-02T04:13:34;0.86;;;0.86;;
82787;SDS011;72529;51.786;4.662;2024-03-02T04:15:59;0.92;;;0.91;;
82787;SDS011;72529;51.786;4.662;2024-03-02T04:18:25;0.86;;;0.85;;
82787;SDS011;72529;51.786;4.662;2024-03-02T04:20:50;1.03;;;1.01;;
82787;SDS011;72529;51.786;4.662;2024-03-02T04:23:16;0.98;;;0.97;;
82787;SDS011;72529;51.786;4.662;2024-03-02T04:25:41;0.96;;;0.95;;
82787;SDS011;72529;51.786;4.662;2024-03-02T04:28:06;0.93;;;0.91;;
82787;SDS011;72529;51.786;4.662;2024-03-02T04:30:32;1.06;;;1.04;;
82787;SDS011;72529;51.786;4.662;2024-03-02T04:32:57;1.12;;;1.10;;
82787;SDS011;72529;51.786;4.662;2024-03-02T04:35:23;1.11;;;1.08;;
82787;SDS011;72529;51.786;4.662;2024-03-02T04:37:48;1.11;;;1.08;;
82787;SDS011;72529;51.786;4.662;2024-03-02T04:40:14;1.10;;;1.08;;
82787;SDS011;72529;51.786;4.662;2024-03-02T04:42:39;1.12;;;1.09;;
82787;SDS011;72529;51.786;4.662;2024-03-02T04:45:05;1.13;;;1.10;;
82787;SDS011;72529;51.786;4.662;2024-03-02T04:47:31;1.14;;;1.12;;
82787;SDS011;72529;51.786;4.662;2024-03-02T04:49:56;1.05;;;1.02;;
82787;SDS011;72529;51.786;4.662;2024-03-02T04:52:21;1.16;;;1.13;;
82787;SDS011;72529;51.786;4.662;2024-03-02T04:54:47;1.15;;;1.12;;
82787;SDS011;72529;51.786;4.662;2024-03-02T04:57:31;1.09;;;1.06;;
82787;SDS011;72529;51.786;4.662;2024-03-02T04:59:57;1.14;;;1.10;;
82787;SDS011;72529;51.786;4.662;2024-03-02T05:02:22;1.09;;;1.04;;
82787;SDS011;72529;51.786;4.662;2024-03-02T05:04:47;1.02;;;0.98;;
82787;SDS011;72529;51.786;4.662;2024-03-02T05:07:14;1.01;;;0.97;;
82787;SDS011;72529;51.786;4.662;2024-03-02T05:09:39;1.04;;;0.99;;
82787;SDS011;72529;51.786;4.662;2024-03-02T05:12:05;1.10;;;1.04;;
82787;SDS011;72529;51.786;4.662;2024-03-02T05:14:49;1.12;;;1.05;;
82787;SDS011;72529;51.786;4.662;2024-03-02T05:17:15;1.22;;;1.13;;
82787;SDS011;72529;51.786;4.662;2024-03-02T05:19:40;1.16;;;1.07;;
82787;SDS011;72529;51.786;4.662;2024-03-02T05:22:05;1.32;;;1.21;;
82787;SDS011;72529;51.786;4.662;2024-03-02T05:24:31;1.16;;;1.04;;
82787;SDS011;72529;51.786;4.662;2024-03-02T05:26:56;1.23;;;1.12;;
82787;SDS011;72529;51.786;4.662;2024-03-02T05:29:22;1.20;;;1.10;;
82787;SDS011;72529;51.786;4.662;2024-03-02T05:31:47;1.46;;;1.32;;
82787;SDS011;72529;51.786;4.662;2024-03-02T05:34:13;1.13;;;1.02;;
82787;SDS011;72529;51.786;4.662;2024-03-02T05:36:38;1.22;;;1.11;;
82787;SDS011;72529;51.786;4.662;2024-03-02T05:39:04;1.02;;;0.92;;
82787;SDS011;72529;51.786;4.662;2024-03-02T05:41:31;1.07;;;0.97;;
82787;SDS011;72529;51.786;4.662;2024-03-02T05:43:57;1.39;;;1.27;;
82787;SDS011;72529;51.786;4.662;2024-03-02T05:46:22;1.30;;;1.19;;
82787;SDS011;72529;51.786;4.662;2024-03-02T05:48:48;1.38;;;1.26;;
82787;SDS011;72529;51.786;4.662;2024-03-02T05:51:13;1.11;;;1.02;;
82787;SDS011;72529;51.786;4.662;2024-03-02T05:53:39;1.09;;;1.00;;
82787;SDS011;72529;51.786;4.662;2024-03-02T05:56:04;1.29;;;1.18;;
82787;SDS011;72529;51.786;4.662;2024-03-02T05:58:30;1.25;;;1.14;;
82787;SDS011;72529;51.786;4.662;2024-03-02T06:01:11;1.11;;;1.02;;
82787;SDS011;72529;51.786;4.662;2024-03-02T06:03:37;1.12;;;1.00;;
82787;SDS011;72529;51.786;4.662;2024-03-02T06:06:02;1.29;;;1.15;;
82787;SDS011;72529;51.786;4.662;2024-03-02T06:08:28;1.45;;;1.30;;
82787;SDS011;72529;51.786;4.662;2024-03-02T06:10:53;1.25;;;1.12;;
82787;SDS011;72529;51.786;4.662;2024-03-02T06:13:19;1.24;;;1.11;;
82787;SDS011;72529;51.786;4.662;2024-03-02T06:15:44;1.41;;;1.26;;
82787;SDS011;72529;51.786;4.662;2024-03-02T06:18:09;1.08;;;0.95;;
82787;SDS011;72529;51.786;4.662;2024-03-02T06:20:35;1.51;;;1.33;;
82787;SDS011;72529;51.786;4.662;2024-03-02T06:23:00;1.21;;;1.05;;
82787;SDS011;72529;51.786;4.662;2024-03-02T06:25:27;1.08;;;0.94;;
82787;SDS011;72529;51.786;4.662;2024-03-02T06:27:53;1.24;;;1.10;;
82787;SDS011;72529;51.786;4.662;2024-03-02T06:30:18;1.37;;;1.21;;
82787;SDS011;72529;51.786;4.662;2024-03-02T06:32:44;1.47;;;1.28;;
82787;SDS011;72529;51.786;4.662;2024-03-02T06:35:09;1.28;;;1.11;;
82787;SDS011;72529;51.786;4.662;2024-03-02T06:37:36;1.55;;;1.34;;
82787;SDS011;72529;51.786;4.662;2024-03-02T06:40:03;1.41;;;1.23;;
82787;SDS011;72529;51.786;4.662;2024-03-02T06:42:29;1.47;;;1.26;;
82787;SDS011;72529;51.786;4.662;2024-03-02T06:44:58;1.56;;;1.32;;
82787;SDS011;72529;51.786;4.662;2024-03-02T06:47:24;1.42;;;1.20;;
82787;SDS011;72529;51.786;4.662;2024-03-02T06:49:49;1.47;;;1.25;;
82787;SDS011;72529;51.786;4.662;2024-03-02T06:52:15;1.61;;;1.37;;
82787;SDS011;72529;51.786;4.662;2024-03-02T06:54:40;1.32;;;1.13;;
82787;SDS011;72529;51.786;4.662;2024-03-02T06:57:05;1.35;;;1.15;;
82787;SDS011;72529;51.786;4.662;2024-03-02T06:59:31;1.39;;;1.17;;
82787;SDS011;72529;51.786;4.662;2024-03-02T07:01:56;1.39;;;1.17;;
82787;SDS011;72529;51.786;4.662;2024-03-02T07:04:22;1.69;;;1.44;;
82787;SDS011;72529;51.786;4.662;2024-03-02T07:06:47;1.81;;;1.52;;
82787;SDS011;72529;51.786;4.662;2024-03-02T07:09:12;1.63;;;1.38;;
82787;SDS011;72529;51.786;4.662;2024-03-02T07:11:38;1.51;;;1.30;;
82787;SDS011;72529;51.786;4.662;2024-03-02T07:14:03;1.80;;;1.58;;
82787;SDS011;72529;51.786;4.662;2024-03-02T07:16:29;1.56;;;1.36;;
82787;SDS011;72529;51.786;4.662;2024-03-02T07:18:55;1.28;;;1.13;;
82787;SDS011;72529;51.786;4.662;2024-03-02T07:21:22;1.47;;;1.30;;
82787;SDS011;72529;51.786;4.662;2024-03-02T07:23:48;1.69;;;1.48;;
82787;SDS011;72529;51.786;4.662;2024-03-02T07:26:14;1.60;;;1.40;;
82787;SDS011;72529;51.786;4.662;2024-03-02T07:28:46;1.45;;;1.28;;
82787;SDS011;72529;51.786;4.662;2024-03-02T07:31:13;1.43;;;1.27;;
82787;SDS011;72529;51.786;4.662;2024-03-02T07:33:38;1.30;;;1.16;;
82787;SDS011;72529;51.786;4.662;2024-03-02T07:36:04;1.79;;;1.60;;
82787;SDS011;72529;51.786;4.662;2024-03-02T07:38:29;1.46;;;1.32;;
82787;SDS011;72529;51.786;4.662;2024-03-02T07:40:56;1.39;;;1.27;;
82787;SDS011;72529;51.786;4.662;2024-03-02T07:43:22;1.64;;;1.48;;
82787;SDS011;72529;51.786;4.662;2024-03-02T07:45:48;1.51;;;1.36;;
82787;SDS011;72529;51.786;4.662;2024-03-02T07:48:14;1.67;;;1.52;;
82787;SDS011;72529;51.786;4.662;2024-03-02T07:50:42;1.52;;;1.38;;
82787;SDS011;72529;51.786;4.662;2024-03-02T07:53:08;1.45;;;1.34;;
82787;SDS011;72529;51.786;4.662;2024-03-02T07:55:34;1.56;;;1.42;;
82787;SDS011;72529;51.786;4.662;2024-03-02T07:58:00;1.50;;;1.39;;
82787;SDS011;72529;51.786;4.662;2024-03-02T08:00:26;1.64;;;1.51;;
82787;SDS011;72529;51.786;4.662;2024-03-02T08:02:53;1.78;;;1.63;;
82787;SDS011;72529;51.786;4.662;2024-03-02T08:05:19;1.62;;;1.50;;
82787;SDS011;72529;51.786;4.662;2024-03-02T08:07:45;1.69;;;1.55;;
82787;SDS011;72529;51.786;4.662;2024-03-02T08:10:12;1.73;;;1.58;;
82787;SDS011;72529;51.786;4.662;2024-03-02T08:12:38;1.97;;;1.76;;
82787;SDS011;72529;51.786;4.662;2024-03-02T08:15:03;1.74;;;1.56;;
82787;SDS011;72529;51.786;4.662;2024-03-02T08:17:30;1.82;;;1.63;;
82787;SDS011;72529;51.786;4.662;2024-03-02T08:19:55;2.04;;;1.81;;
82787;SDS011;72529;51.786;4.662;2024-03-02T08:22:22;1.66;;;1.46;;
82787;SDS011;72529;51.786;4.662;2024-03-02T08:24:48;1.82;;;1.59;;
82787;SDS011;72529;51.786;4.662;2024-03-02T08:27:13;1.90;;;1.65;;
82787;SDS011;72529;51.786;4.662;2024-03-02T08:29:40;1.92;;;1.69;;
82787;SDS011;72529;51.786;4.662;2024-03-02T08:32:06;1.93;;;1.70;;
82787;SDS011;72529;51.786;4.662;2024-03-02T08:34:32;1.73;;;1.51;;
82787;SDS011;72529;51.786;4.662;2024-03-02T08:36:58;1.68;;;1.45;;
82787;SDS011;72529;51.786;4.662;2024-03-02T08:39:24;1.88;;;1.58;;
82787;SDS011;72529;51.786;4.662;2024-03-02T08:41:50;1.93;;;1.60;;
82787;SDS011;72529;51.786;4.662;2024-03-02T08:44:16;2.00;;;1.64;;
82787;SDS011;72529;51.786;4.662;2024-03-02T08:46:42;2.18;;;1.77;;
82787;SDS011;72529;51.786;4.662;2024-03-02T08:49:07;2.13;;;1.74;;
82787;SDS011;72529;51.786;4.662;2024-03-02T08:51:33;2.16;;;1.75;;
82787;SDS011;72529;51.786;4.662;2024-03-02T08:53:59;2.25;;;1.78;;
82787;SDS011;72529;51.786;4.662;2024-03-02T08:56:24;2.59;;;1.99;;
82787;SDS011;72529;51.786;4.662;2024-03-02T08:58:50;2.55;;;1.95;;
82787;SDS011;72529;51.786;4.662;2024-03-02T09:01:16;2.26;;;1.74;;
82787;SDS011;72529;51.786;4.662;2024-03-02T09:03:43;2.31;;;1.76;;
82787;SDS011;72529;51.786;4.662;2024-03-02T09:06:10;2.76;;;2.09;;
82787;SDS011;72529;51.786;4.662;2024-03-02T09:08:35;2.80;;;2.12;;
82787;SDS011;72529;51.786;4.662;2024-03-02T09:11:02;2.59;;;1.96;;
82787;SDS011;72529;51.786;4.662;2024-03-02T09:13:28;2.27;;;1.73;;
82787;SDS011;72529;51.786;4.662;2024-03-02T09:15:54;2.54;;;1.94;;
82787;SDS011;72529;51.786;4.662;2024-03-02T09:18:20;2.77;;;2.11;;
82787;SDS011;72529;51.786;4.662;2024-03-02T09:20:45;2.40;;;1.81;;
82787;SDS011;72529;51.786;4.662;2024-03-02T09:23:11;2.92;;;2.20;;
82787;SDS011;72529;51.786;4.662;2024-03-02T09:25:37;3.03;;;2.27;;
82787;SDS011;72529;51.786;4.662;2024-03-02T09:28:02;3.01;;;2.26;;
82787;SDS011;72529;51.786;4.662;2024-03-02T09:30:28;3.36;;;2.49;;
82787;SDS011;72529;51.786;4.662;2024-03-02T09:32:53;3.18;;;2.34;;
82787;SDS011;72529;51.786;4.662;2024-03-02T09:35:19;2.51;;;1.89;;
82787;SDS011;72529;51.786;4.662;2024-03-02T09:37:45;2.80;;;2.11;;
82787;SDS011;72529;51.786;4.662;2024-03-02T09:40:10;2.62;;;2.00;;
82787;SDS011;72529;51.786;4.662;2024-03-02T09:42:36;2.55;;;1.95;;
82787;SDS011;72529;51.786;4.662;2024-03-02T09:45:02;2.73;;;2.10;;
82787;SDS011;72529;51.786;4.662;2024-03-02T09:47:27;2.78;;;2.13;;
82787;SDS011;72529;51.786;4.662;2024-03-02T09:49:53;2.56;;;1.96;;
82787;SDS011;72529;51.786;4.662;2024-03-02T09:52:20;2.90;;;2.19;;
82787;SDS011;72529;51.786;4.662;2024-03-02T09:54:47;2.68;;;2.02;;
82787;SDS011;72529;51.786;4.662;2024-03-02T09:57:14;2.75;;;2.13;;
82787;SDS011;72529;51.786;4.662;2024-03-02T09:59:39;2.65;;;2.04;;
82787;SDS011;72529;51.786;4.662;2024-03-02T10:02:05;2.98;;;2.32;;
82787;SDS011;72529;51.786;4.662;2024-03-02T10:04:32;2.78;;;2.20;;
82787;SDS011;72529;51.786;4.662;2024-03-02T10:09:36;2.86;;;2.21;;
82787;SDS011;72529;51.786;4.662;2024-03-02T10:12:04;2.93;;;2.28;;
82787;SDS011;72529;51.786;4.662;2024-03-02T10:14:31;3.11;;;2.44;;
82787;SDS011;72529;51.786;4.662;2024-03-02T10:17:01;3.06;;;2.40;;
82787;SDS011;72529;51.786;4.662;2024-03-02T10:19:37;2.89;;;2.26;;
82787;SDS011;72529;51.786;4.662;2024-03-02T10:22:04;3.10;;;2.40;;
82787;SDS011;72529;51.786;4.662;2024-03-02T10:24:35;3.60;;;2.81;;
82787;SDS011;72529;51.786;4.662;2024-03-02T10:27:08;2.59;;;2.05;;
82787;SDS011;72529;51.786;4.662;2024-03-02T10:29:36;2.91;;;2.22;;
82787;SDS011;72529;51.786;4.662;2024-03-02T10:32:03;2.76;;;2.06;;
82787;SDS011;72529;51.786;4.662;2024-03-02T10:34:29;3.06;;;2.28;;
82787;SDS011;72529;51.786;4.662;2024-03-02T10:36:56;2.98;;;2.20;;
82787;SDS011;72529;51.786;4.662;2024-03-02T10:39:22;3.00;;;2.22;;
82787;SDS011;72529;51.786;4.662;2024-03-02T10:41:49;2.89;;;2.13;;
82787;SDS011;72529;51.786;4.662;2024-03-02T10:44:17;2.91;;;2.13;;
82787;SDS011;72529;51.786;4.662;2024-03-02T10:46:43;3.45;;;2.53;;
82787;SDS011;72529;51.786;4.662;2024-03-02T10:49:12;3.53;;;2.58;;
82787;SDS011;72529;51.786;4.662;2024-03-02T10:51:38;3.35;;;2.42;;
82787;SDS011;72529;51.786;4.662;2024-03-02T10:54:03;3.17;;;2.26;;
82787;SDS011;72529;51.786;4.662;2024-03-02T10:56:30;3.52;;;2.49;;
82787;SDS011;72529;51.786;4.662;2024-03-02T11:01:58;3.07;;;2.15;;
82787;SDS011;72529;51.786;4.662;2024-03-02T11:04:26;3.70;;;2.56;;
82787;SDS011;72529;51.786;4.662;2024-03-02T11:07:04;3.33;;;2.33;;
82787;SDS011;72529;51.786;4.662;2024-03-02T11:09:35;2.75;;;1.97;;
82787;SDS011;72529;51.786;4.662;2024-03-02T11:12:19;2.92;;;2.11;;
82787;SDS011;72529;51.786;4.662;2024-03-02T11:14:55;2.74;;;1.99;;
82787;SDS011;72529;51.786;4.662;2024-03-02T11:17:21;2.54;;;1.88;;
82787;SDS011;72529;51.786;4.662;2024-03-02T11:19:49;2.56;;;1.93;;
82787;SDS011;72529;51.786;4.662;2024-03-02T11:22:16;2.47;;;1.85;;
82787;SDS011;72529;51.786;4.662;2024-03-02T11:24:49;2.49;;;1.85;;
82787;SDS011;72529;51.786;4.662;2024-03-02T11:31:03;2.93;;;2.12;;
82787;SDS011;72529;51.786;4.662;2024-03-02T11:33:09;2.77;;;2.03;;
82787;SDS011;72529;51.786;4.662;2024-03-02T11:35:36;2.60;;;1.88;;
82787;SDS011;72529;51.786;4.662;2024-03-02T11:38:03;2.61;;;1.91;;
82787;SDS011;72529;51.786;4.662;2024-03-02T11:40:30;2.78;;;2.01;;
82787;SDS011;72529;51.786;4.662;2024-03-02T11:42:59;2.93;;;2.15;;
82787;SDS011;72529;51.786;4.662;2024-03-02T11:45:26;2.78;;;2.04;;
82787;SDS011;72529;51.786;4.662;2024-03-02T11:47:55;2.59;;;1.88;;
82787;SDS011;72529;51.786;4.662;2024-03-02T11:50:29;2.53;;;1.83;;
82787;SDS011;72529;51.786;4.662;2024-03-02T11:52:56;2.61;;;1.93;;
82787;SDS011;72529;51.786;4.662;2024-03-02T11:55:23;2.78;;;2.06;;
82787;SDS011;72529;51.786;4.662;2024-03-02T11:57:52;3.01;;;2.25;;
82787;SDS011;72529;51.786;4.662;2024-03-02T12:00:18;3.10;;;2.29;;
82787;SDS011;72529;51.786;4.662;2024-03-02T12:02:48;3.51;;;2.55;;
82787;SDS011;72529;51.786;4.662;2024-03-02T12:05:28;2.75;;;1.95;;
82787;SDS011;72529;51.786;4.662;2024-03-02T12:07:59;3.10;;;2.19;;
82787;SDS011;72529;51.786;4.662;2024-03-02T12:10:32;3.44;;;2.41;;
82787;SDS011;72529;51.786;4.662;2024-03-02T12:13:02;3.59;;;2.52;;
82787;SDS011;72529;51.786;4.662;2024-03-02T12:15:29;3.42;;;2.43;;
82787;SDS011;72529;51.786;4.662;2024-03-02T12:17:57;3.28;;;2.34;;
82787;SDS011;72529;51.786;4.662;2024-03-02T12:20:26;3.23;;;2.33;;
82787;SDS011;72529;51.786;4.662;2024-03-02T12:22:54;2.88;;;2.15;;
82787;SDS011;72529;51.786;4.662;2024-03-02T12:25:21;3.81;;;2.96;;
82787;SDS011;72529;51.786;4.662;2024-03-02T12:27:49;2.69;;;2.06;;
82787;SDS011;72529;51.786;4.662;2024-03-02T12:30:16;2.59;;;1.93;;
82787;SDS011;72529;51.786;4.662;2024-03-02T12:32:43;2.65;;;1.93;;
82787;SDS011;72529;51.786;4.662;2024-03-02T12:35:10;2.63;;;1.93;;
82787;SDS011;72529;51.786;4.662;2024-03-02T12:37:46;2.65;;;1.93;;
82787;SDS011;72529;51.786;4.662;2024-03-02T12:40:12;2.62;;;1.90;;
82787;SDS011;72529;51.786;4.662;2024-03-02T12:42:39;2.52;;;1.84;;
82787;SDS011;72529;51.786;4.662;2024-03-02T12:45:08;3.17;;;2.33;;
82787;SDS011;72529;51.786;4.662;2024-03-02T12:47:34;2.88;;;2.09;;
82787;SDS011;72529;51.786;4.662;2024-03-02T12:50:04;2.77;;;2.01;;
82787;SDS011;72529;51.786;4.662;2024-03-02T12:52:32;2.70;;;1.93;;
82787;SDS011;72529;51.786;4.662;2024-03-02T12:55:03;2.56;;;1.82;;
82787;SDS011;72529;51.786;4.662;2024-03-02T12:57:31;2.40;;;1.70;;
82787;SDS011;72529;51.786;4.662;2024-03-02T13:00:01;2.56;;;1.84;;
82787;SDS011;72529;51.786;4.662;2024-03-02T13:02:36;2.56;;;1.83;;
82787;SDS011;72529;51.786;4.662;2024-03-02T13:05:05;2.72;;;1.92;;
82787;SDS011;72529;51.786;4.662;2024-03-02T13:07:36;2.57;;;1.84;;
82787;SDS011;72529;51.786;4.662;2024-03-02T13:10:02;2.63;;;1.87;;
82787;SDS011;72529;51.786;4.662;2024-03-02T13:12:29;2.88;;;2.04;;
82787;SDS011;72529;51.786;4.662;2024-03-02T13:14:57;2.78;;;1.97;;
82787;SDS011;72529;51.786;4.662;2024-03-02T13:17:23;2.57;;;1.84;;
82787;SDS011;72529;51.786;4.662;2024-03-02T13:22:18;2.57;;;1.85;;
82787;SDS011;72529;51.786;4.662;2024-03-02T13:24:44;2.97;;;2.14;;
82787;SDS011;72529;51.786;4.662;2024-03-02T13:27:09;2.65;;;1.91;;
82787;SDS011;72529;51.786;4.662;2024-03-02T13:29:34;2.54;;;1.82;;
82787;SDS011;72529;51.786;4.662;2024-03-02T13:32:00;2.39;;;1.71;;
82787;SDS011;72529;51.786;4.662;2024-03-02T13:34:25;2.33;;;1.70;;
82787;SDS011;72529;51.786;4.662;2024-03-02T13:36:51;2.16;;;1.59;;
82787;SDS011;72529;51.786;4.662;2024-03-02T13:39:16;2.37;;;1.75;;
82787;SDS011;72529;51.786;4.662;2024-03-02T13:41:42;1.88;;;1.37;;
82787;SDS011;72529;51.786;4.662;2024-03-02T13:44:10;2.20;;;1.57;;
82787;SDS011;72529;51.786;4.662;2024-03-02T13:46:36;3.04;;;2.14;;
82787;SDS011;72529;51.786;4.662;2024-03-02T13:49:01;2.36;;;1.68;;
82787;SDS011;72529;51.786;4.662;2024-03-02T13:51:27;2.66;;;1.93;;
82787;SDS011;72529;51.786;4.662;2024-03-02T13:53:53;2.79;;;2.07;;
82787;SDS011;72529;51.786;4.662;2024-03-02T13:56:18;2.67;;;2.01;;
82787;SDS011;72529;51.786;4.662;2024-03-02T13:58:44;2.09;;;1.61;;
82787;SDS011;72529;51.786;4.662;2024-03-02T14:01:11;2.11;;;1.64;;
82787;SDS011;72529;51.786;4.662;2024-03-02T14:03:36;2.06;;;1.60;;
82787;SDS011;72529;51.786;4.662;2024-03-02T14:06:02;2.41;;;1.86;;
82787;SDS011;72529;51.786;4.662;2024-03-02T14:08:28;2.50;;;1.90;;
82787;SDS011;72529;51.786;4.662;2024-03-02T14:10:53;2.33;;;1.77;;
82787;SDS011;72529;51.786;4.662;2024-03-02T14:13:20;2.63;;;2.01;;
82787;SDS011;72529;51.786;4.662;2024-03-02T14:15:45;2.64;;;2.00;;
82787;SDS011;72529;51.786;4.662;2024-03-02T14:18:11;2.11;;;1.58;;
82787;SDS011;72529;51.786;4.662;2024-03-02T14:20:37;2.66;;;1.97;;
82787;SDS011;72529;51.786;4.662;2024-03-02T14:23:03;2.54;;;1.90;;
82787;SDS011;72529;51.786;4.662;2024-03-02T14:25:29;2.42;;;1.80;;
82787;SDS011;72529;51.786;4.662;2024-03-02T14:27:58;2.18;;;1.64;;
82787;SDS011;72529;51.786;4.662;2024-03-02T14:30:24;2.44;;;1.82;;
82787;SDS011;72529;51.786;4.662;2024-03-02T14:32:49;2.30;;;1.72;;
82787;SDS011;72529;51.786;4.662;2024-03-02T14:35:15;2.45;;;1.84;;
82787;SDS011;72529;51.786;4.662;2024-03-02T14:37:40;2.61;;;1.96;;
82787;SDS011;72529;51.786;4.662;2024-03-02T14:40:06;2.77;;;2.09;;
82787;SDS011;72529;51.786;4.662;2024-03-02T14:42:34;2.94;;;2.21;;
82787;SDS011;72529;51.786;4.662;2024-03-02T14:45:00;2.43;;;1.83;;
82787;SDS011;72529;51.786;4.662;2024-03-02T14:47:27;2.41;;;1.82;;
82787;SDS011;72529;51.786;4.662;2024-03-02T14:49:53;2.19;;;1.66;;
82787;SDS011;72529;51.786;4.662;2024-03-02T14:52:18;2.14;;;1.63;;
82787;SDS011;72529;51.786;4.662;2024-03-02T14:54:44;2.44;;;1.85;;
82787;SDS011;72529;51.786;4.662;2024-03-02T14:57:09;2.39;;;1.85;;